# Tabular Observed and Forecast Hydrograph Information
#
# Location: Cache Creek - Rumsey (RMSC1)
#
# File Generation Time: 05/04/2026 at 07:33 AM PDT
# Data Interval: 1 Hour
#
# Most Recent Date & Time of Maximum Observed: 05/04/2026 at 03:00 AM PDT
# Maximum Observed Stage: 2.63 Feet
# Maximum Observed Flow: 470 cfs
#
# Earliest Date & Time of Maximum Forecast: 05/05/2026 at 06:00 AM PDT
# Maximum Forecast Stage: 2.64 Feet
# Maximum Forecast Flow: 475 cfs
#
# OBSERVED
#
# Date & Time (Local) Stage (Feet) Flow (cfs) Trend Observed Status
# ---------------------------------------------------------------------------------
04/29/2026 07 AM PDT 2.33 326 Normal
04/29/2026 08 AM PDT 2.33 326 0 Normal
04/29/2026 09 AM PDT 2.32 322 - Normal
04/29/2026 10 AM PDT 2.33 326 + Normal
04/29/2026 11 AM PDT 2.33 326 0 Normal
04/29/2026 12 PM PDT 2.33 326 0 Normal
04/29/2026 01 PM PDT 2.32 322 - Normal
04/29/2026 02 PM PDT 2.33 326 + Normal
04/29/2026 03 PM PDT 2.33 326 0 Normal
04/29/2026 04 PM PDT 2.32 322 - Normal
04/29/2026 05 PM PDT 2.32 322 0 Normal
04/29/2026 06 PM PDT 2.32 322 0 Normal
04/29/2026 07 PM PDT 2.33 326 + Normal
04/29/2026 08 PM PDT 2.33 326 0 Normal
04/29/2026 09 PM PDT 2.33 326 0 Normal
04/29/2026 10 PM PDT 2.33 326 0 Normal
04/29/2026 11 PM PDT 2.38 348 + Normal
04/30/2026 12 AM PDT 2.39 352 + Normal
04/30/2026 01 AM PDT 2.40 357 + Normal
04/30/2026 02 AM PDT 2.40 357 0 Normal
04/30/2026 03 AM PDT 2.38 348 - Normal
04/30/2026 04 AM PDT 2.39 352 + Normal
04/30/2026 05 AM PDT 2.39 352 0 Normal
04/30/2026 06 AM PDT 2.39 352 0 Normal
04/30/2026 07 AM PDT 2.39 352 0 Normal
04/30/2026 08 AM PDT 2.39 352 0 Normal
04/30/2026 09 AM PDT 2.40 357 + Normal
04/30/2026 10 AM PDT 2.39 352 - Normal
04/30/2026 11 AM PDT 2.40 357 + Normal
04/30/2026 12 PM PDT 2.40 357 0 Normal
04/30/2026 01 PM PDT 2.40 357 0 Normal
04/30/2026 02 PM PDT 2.39 352 - Normal
04/30/2026 03 PM PDT 2.39 352 0 Normal
04/30/2026 04 PM PDT 2.39 352 0 Normal
04/30/2026 05 PM PDT 2.40 357 + Normal
04/30/2026 06 PM PDT 2.39 352 - Normal
04/30/2026 07 PM PDT 2.39 352 0 Normal
04/30/2026 08 PM PDT 2.39 352 0 Normal
04/30/2026 09 PM PDT 2.39 352 0 Normal
04/30/2026 10 PM PDT 2.42 366 + Normal
04/30/2026 11 PM PDT 2.44 375 + Normal
05/01/2026 12 AM PDT 2.45 379 + Normal
05/01/2026 01 AM PDT 2.44 375 - Normal
05/01/2026 02 AM PDT 2.45 379 + Normal
05/01/2026 03 AM PDT 2.44 375 - Normal
05/01/2026 04 AM PDT 2.44 375 0 Normal
05/01/2026 05 AM PDT 2.44 375 0 Normal
05/01/2026 06 AM PDT 2.45 379 + Normal
05/01/2026 07 AM PDT 2.45 379 0 Normal
05/01/2026 08 AM PDT 2.45 379 0 Normal
05/01/2026 09 AM PDT 2.45 379 0 Normal
05/01/2026 10 AM PDT 2.45 379 0 Normal
05/01/2026 11 AM PDT 2.45 379 0 Normal
05/01/2026 12 PM PDT 2.45 379 0 Normal
05/01/2026 01 PM PDT 2.45 379 0 Normal
05/01/2026 02 PM PDT 2.45 379 0 Normal
05/01/2026 03 PM PDT 2.44 375 - Normal
05/01/2026 04 PM PDT 2.45 379 + Normal
05/01/2026 05 PM PDT 2.45 379 0 Normal
05/01/2026 06 PM PDT 2.44 375 - Normal
05/01/2026 07 PM PDT 2.44 375 0 Normal
05/01/2026 08 PM PDT 2.44 375 0 Normal
05/01/2026 09 PM PDT 2.45 379 + Normal
05/01/2026 10 PM PDT 2.45 379 0 Normal
05/01/2026 11 PM PDT 2.44 375 - Normal
05/02/2026 12 AM PDT 2.44 375 0 Normal
05/02/2026 01 AM PDT 2.44 375 0 Normal
05/02/2026 02 AM PDT 2.44 375 0 Normal
05/02/2026 03 AM PDT 2.44 375 0 Normal
05/02/2026 04 AM PDT 2.44 375 0 Normal
05/02/2026 05 AM PDT 2.44 375 0 Normal
05/02/2026 06 AM PDT 2.44 375 0 Normal
05/02/2026 07 AM PDT 2.44 375 0 Normal
05/02/2026 08 AM PDT 2.45 379 + Normal
05/02/2026 09 AM PDT 2.44 375 - Normal
05/02/2026 10 AM PDT 2.45 379 + Normal
05/02/2026 11 AM PDT 2.44 375 - Normal
05/02/2026 12 PM PDT 2.44 375 0 Normal
05/02/2026 01 PM PDT 2.45 379 + Normal
05/02/2026 02 PM PDT 2.44 375 - Normal
05/02/2026 03 PM PDT 2.44 375 0 Normal
05/02/2026 04 PM PDT 2.44 375 0 Normal
05/02/2026 05 PM PDT 2.44 375 0 Normal
05/02/2026 06 PM PDT 2.44 375 0 Normal
05/02/2026 07 PM PDT 2.44 375 0 Normal
05/02/2026 08 PM PDT 2.44 375 0 Normal
05/02/2026 09 PM PDT 2.44 375 0 Normal
05/02/2026 10 PM PDT 2.46 384 + Normal
05/02/2026 11 PM PDT 2.46 384 0 Normal
05/03/2026 12 AM PDT 2.46 384 0 Normal
05/03/2026 01 AM PDT 2.45 379 - Normal
05/03/2026 02 AM PDT 2.45 379 0 Normal
05/03/2026 03 AM PDT 2.46 384 + Normal
05/03/2026 04 AM PDT 2.45 379 - Normal
05/03/2026 05 AM PDT 2.45 379 0 Normal
05/03/2026 06 AM PDT 2.45 379 0 Normal
05/03/2026 07 AM PDT 2.45 379 0 Normal
05/03/2026 08 AM PDT 2.46 384 + Normal
05/03/2026 09 AM PDT 2.46 384 0 Normal
05/03/2026 10 AM PDT 2.46 384 0 Normal
05/03/2026 11 AM PDT 2.47 389 + Normal
05/03/2026 12 PM PDT 2.47 389 0 Normal
05/03/2026 01 PM PDT 2.48 393 + Normal
05/03/2026 02 PM PDT 2.48 393 0 Normal
05/03/2026 03 PM PDT 2.49 398 + Normal
05/03/2026 04 PM PDT 2.50 403 + Normal
05/03/2026 05 PM PDT 2.49 398 - Normal
05/03/2026 06 PM PDT 2.51 408 + Normal
05/03/2026 07 PM PDT 2.49 398 - Normal
05/03/2026 08 PM PDT 2.49 398 0 Normal
05/03/2026 09 PM PDT 2.50 403 + Normal
05/03/2026 10 PM PDT 2.57 438 + Normal
05/03/2026 11 PM PDT 2.58 443 + Normal
05/04/2026 12 AM PDT 2.60 454 + Normal
05/04/2026 01 AM PDT 2.59 448 - Normal
05/04/2026 02 AM PDT 2.61 459 + Normal
05/04/2026 03 AM PDT 2.63 470 + Normal
05/04/2026 04 AM PDT 2.57 438 - Normal
05/04/2026 05 AM PDT 2.57 438 0 Normal
05/04/2026 06 AM PDT 2.57 438 0 Normal
05/04/2026 07 AM PDT 2.57 438 0 Normal
#
# FORECAST
#
# Date & Time (Local) Stage (Feet) Flow (cfs) Trend Forecast Status
# ---------------------------------------------------------------------------------
05/04/2026 08 AM PDT 2.57 438 Normal
05/04/2026 09 AM PDT 2.58 443 + Normal
05/04/2026 10 AM PDT 2.58 443 0 Normal
05/04/2026 11 AM PDT 2.58 443 0 Normal
05/04/2026 12 PM PDT 2.58 443 0 Normal
05/04/2026 01 PM PDT 2.58 443 0 Normal
05/04/2026 02 PM PDT 2.58 443 0 Normal
05/04/2026 03 PM PDT 2.58 443 0 Normal
05/04/2026 04 PM PDT 2.58 443 0 Normal
05/04/2026 05 PM PDT 2.58 443 0 Normal
05/04/2026 06 PM PDT 2.58 443 0 Normal
05/04/2026 07 PM PDT 2.59 448 + Normal
05/04/2026 08 PM PDT 2.59 448 0 Normal
05/04/2026 09 PM PDT 2.59 448 0 Normal
05/04/2026 10 PM PDT 2.59 448 0 Normal
05/04/2026 11 PM PDT 2.59 448 0 Normal
05/05/2026 12 AM PDT 2.60 454 + Normal
05/05/2026 01 AM PDT 2.61 459 + Normal
05/05/2026 02 AM PDT 2.62 464 + Normal
05/05/2026 03 AM PDT 2.62 464 0 Normal
05/05/2026 04 AM PDT 2.63 470 + Normal
05/05/2026 05 AM PDT 2.63 470 0 Normal
05/05/2026 06 AM PDT 2.64 475 + Normal
05/05/2026 07 AM PDT 2.64 475 0 Normal
05/05/2026 08 AM PDT 2.64 475 0 Normal
05/05/2026 09 AM PDT 2.64 475 0 Normal
05/05/2026 10 AM PDT 2.63 470 - Normal
05/05/2026 11 AM PDT 2.62 464 - Normal
05/05/2026 12 PM PDT 2.61 459 - Normal
05/05/2026 01 PM PDT 2.60 454 - Normal
05/05/2026 02 PM PDT 2.60 454 0 Normal
05/05/2026 03 PM PDT 2.60 454 0 Normal
05/05/2026 04 PM PDT 2.60 454 0 Normal
05/05/2026 05 PM PDT 2.59 448 - Normal
05/05/2026 06 PM PDT 2.59 448 0 Normal
05/05/2026 07 PM PDT 2.59 448 0 Normal
05/05/2026 08 PM PDT 2.59 448 0 Normal
05/05/2026 09 PM PDT 2.58 443 - Normal
05/05/2026 10 PM PDT 2.58 443 0 Normal
05/05/2026 11 PM PDT 2.58 443 0 Normal
05/06/2026 12 AM PDT 2.58 443 0 Normal
05/06/2026 01 AM PDT 2.58 443 0 Normal
05/06/2026 02 AM PDT 2.58 443 0 Normal
05/06/2026 03 AM PDT 2.58 443 0 Normal
05/06/2026 04 AM PDT 2.58 443 0 Normal
05/06/2026 05 AM PDT 2.58 443 0 Normal
05/06/2026 06 AM PDT 2.58 443 0 Normal
05/06/2026 07 AM PDT 2.58 443 0 Normal
05/06/2026 08 AM PDT 2.58 443 0 Normal
05/06/2026 09 AM PDT 2.58 443 0 Normal
05/06/2026 10 AM PDT 2.58 443 0 Normal
05/06/2026 11 AM PDT 2.58 443 0 Normal
05/06/2026 12 PM PDT 2.57 438 - Normal
05/06/2026 01 PM PDT 2.57 438 0 Normal
05/06/2026 02 PM PDT 2.57 438 0 Normal
05/06/2026 03 PM PDT 2.57 438 0 Normal
05/06/2026 04 PM PDT 2.57 438 0 Normal
05/06/2026 05 PM PDT 2.57 438 0 Normal
05/06/2026 06 PM PDT 2.57 438 0 Normal
05/06/2026 07 PM PDT 2.57 438 0 Normal
05/06/2026 08 PM PDT 2.57 438 0 Normal
05/06/2026 09 PM PDT 2.57 438 0 Normal
05/06/2026 10 PM PDT 2.57 438 0 Normal
05/06/2026 11 PM PDT 2.57 438 0 Normal
05/07/2026 12 AM PDT 2.57 438 0 Normal
05/07/2026 01 AM PDT 2.57 438 0 Normal
05/07/2026 02 AM PDT 2.57 438 0 Normal
05/07/2026 03 AM PDT 2.57 438 0 Normal
05/07/2026 04 AM PDT 2.57 438 0 Normal
05/07/2026 05 AM PDT 2.57 438 0 Normal
05/07/2026 06 AM PDT 2.57 438 0 Normal
05/07/2026 07 AM PDT 2.57 438 0 Normal
05/07/2026 08 AM PDT 2.57 438 0 Normal
05/07/2026 09 AM PDT 2.57 438 0 Normal
05/07/2026 10 AM PDT 2.57 438 0 Normal
05/07/2026 11 AM PDT 2.57 438 0 Normal
05/07/2026 12 PM PDT 2.57 438 0 Normal
05/07/2026 01 PM PDT 2.57 438 0 Normal
05/07/2026 02 PM PDT 2.57 438 0 Normal
05/07/2026 03 PM PDT 2.57 438 0 Normal
05/07/2026 04 PM PDT 2.57 438 0 Normal
05/07/2026 05 PM PDT 2.57 438 0 Normal
05/07/2026 06 PM PDT 2.57 438 0 Normal
05/07/2026 07 PM PDT 2.57 438 0 Normal
05/07/2026 08 PM PDT 2.57 438 0 Normal
05/07/2026 09 PM PDT 2.57 438 0 Normal
05/07/2026 10 PM PDT 2.57 438 0 Normal
05/07/2026 11 PM PDT 2.57 438 0 Normal
05/08/2026 12 AM PDT 2.57 438 0 Normal
05/08/2026 01 AM PDT 2.57 438 0 Normal
05/08/2026 02 AM PDT 2.57 438 0 Normal
05/08/2026 03 AM PDT 2.57 438 0 Normal
05/08/2026 04 AM PDT 2.57 438 0 Normal
05/08/2026 05 AM PDT 2.57 438 0 Normal
05/08/2026 06 AM PDT 2.57 438 0 Normal
05/08/2026 07 AM PDT 2.57 438 0 Normal
05/08/2026 08 AM PDT 2.57 438 0 Normal
05/08/2026 09 AM PDT 2.57 438 0 Normal
05/08/2026 10 AM PDT 2.57 438 0 Normal
05/08/2026 11 AM PDT 2.57 438 0 Normal
05/08/2026 12 PM PDT 2.57 438 0 Normal
05/08/2026 01 PM PDT 2.57 438 0 Normal
05/08/2026 02 PM PDT 2.57 438 0 Normal
05/08/2026 03 PM PDT 2.57 438 0 Normal
05/08/2026 04 PM PDT 2.57 438 0 Normal
05/08/2026 05 PM PDT 2.57 438 0 Normal
05/08/2026 06 PM PDT 2.57 438 0 Normal
05/08/2026 07 PM PDT 2.57 438 0 Normal
05/08/2026 08 PM PDT 2.57 438 0 Normal
05/08/2026 09 PM PDT 2.57 438 0 Normal
05/08/2026 10 PM PDT 2.57 438 0 Normal
05/08/2026 11 PM PDT 2.57 438 0 Normal
05/09/2026 12 AM PDT 2.57 438 0 Normal
05/09/2026 01 AM PDT 2.57 438 0 Normal
05/09/2026 02 AM PDT 2.57 438 0 Normal
05/09/2026 03 AM PDT 2.57 438 0 Normal
05/09/2026 04 AM PDT 2.57 438 0 Normal
05/09/2026 05 AM PDT 2.57 438 0 Normal
#
# NOTE 1: Stages are rounded to the nearest hundredth (.01) of a foot.
# NOTE 2: Flows are rounded to the nearest (1) cfs.
# NOTE 3: Trends are determined using hourly change in unrounded stage and flow.
# NOTE 4: Maximum Values are determined using unrounded stage and flow.
|